sensor_id;sensor_type;location;lat;lon;timestamp;temperature;humidity
45735;DHT22;31446;49.632;8.328;2023-05-07T00:02:13;15.90;99.90
45735;DHT22;31446;49.632;8.328;2023-05-07T00:17:19;15.80;99.90
45735;DHT22;31446;49.632;8.328;2023-05-07T00:32:26;15.60;99.90
45735;DHT22;31446;49.632;8.328;2023-05-07T00:47:32;15.30;99.90
45735;DHT22;31446;49.632;8.328;2023-05-07T01:02:38;15.10;99.90
45735;DHT22;31446;49.632;8.328;2023-05-07T01:17:44;15.00;99.90
45735;DHT22;31446;49.632;8.328;2023-05-07T01:32:53;14.70;99.90
45735;DHT22;31446;49.632;8.328;2023-05-07T02:03:48;14.70;99.90
45735;DHT22;31446;49.632;8.328;2023-05-07T02:18:55;14.60;99.90
45735;DHT22;31446;49.632;8.328;2023-05-07T02:34:01;14.60;99.90
45735;DHT22;31446;49.632;8.328;2023-05-07T02:49:07;14.40;99.90
45735;DHT22;31446;49.632;8.328;2023-05-07T03:04:13;14.10;99.90
45735;DHT22;31446;49.632;8.328;2023-05-07T03:19:20;14.00;99.90
45735;DHT22;31446;49.632;8.328;2023-05-07T03:34:26;13.90;99.90
45735;DHT22;31446;49.632;8.328;2023-05-07T03:49:32;13.90;99.90
45735;DHT22;31446;49.632;8.328;2023-05-07T04:04:38;13.80;99.90
45735;DHT22;31446;49.632;8.328;2023-05-07T04:19:46;13.90;99.90
45735;DHT22;31446;49.632;8.328;2023-05-07T04:34:53;14.00;99.90
45735;DHT22;31446;49.632;8.328;2023-05-07T04:50:00;14.20;99.90
45735;DHT22;31446;49.632;8.328;2023-05-07T05:05:07;14.70;99.90
45735;DHT22;31446;49.632;8.328;2023-05-07T05:20:13;15.20;99.90
45735;DHT22;31446;49.632;8.328;2023-05-07T05:35:19;15.90;99.90
45735;DHT22;31446;49.632;8.328;2023-05-07T05:50:26;16.30;99.90
45735;DHT22;31446;49.632;8.328;2023-05-07T06:05:32;16.40;99.90
45735;DHT22;31446;49.632;8.328;2023-05-07T06:20:38;16.60;99.90
45735;DHT22;31446;49.632;8.328;2023-05-07T06:35:44;17.10;99.90
45735;DHT22;31446;49.632;8.328;2023-05-07T06:50:50;17.20;99.90
45735;DHT22;31446;49.632;8.328;2023-05-07T07:05:58;17.60;99.90
45735;DHT22;31446;49.632;8.328;2023-05-07T07:21:05;18.10;99.90
45735;DHT22;31446;49.632;8.328;2023-05-07T07:36:11;18.10;99.90
45735;DHT22;31446;49.632;8.328;2023-05-07T07:51:17;18.60;99.90
45735;DHT22;31446;49.632;8.328;2023-05-07T08:06:24;18.60;99.90
45735;DHT22;31446;49.632;8.328;2023-05-07T08:21:31;19.10;99.90
45735;DHT22;31446;49.632;8.328;2023-05-07T08:36:38;19.30;99.90
45735;DHT22;31446;49.632;8.328;2023-05-07T08:51:45;19.70;99.90
45735;DHT22;31446;49.632;8.328;2023-05-07T09:06:51;20.40;99.90
45735;DHT22;31446;49.632;8.328;2023-05-07T09:22:03;21.10;99.90
45735;DHT22;31446;49.632;8.328;2023-05-07T09:37:12;21.20;99.90
45735;DHT22;31446;49.632;8.328;2023-05-07T10:24:04;23.60;99.90
45735;DHT22;31446;49.632;8.328;2023-05-07T10:39:16;23.40;99.90
45735;DHT22;31446;49.632;8.328;2023-05-07T10:54:23;24.80;99.90
45735;DHT22;31446;49.632;8.328;2023-05-07T11:09:54;25.20;99.90
45735;DHT22;31446;49.632;8.328;2023-05-07T11:25:02;25.10;99.90
45735;DHT22;31446;49.632;8.328;2023-05-07T11:40:10;24.20;99.90
45735;DHT22;31446;49.632;8.328;2023-05-07T11:55:18;25.00;99.90
45735;DHT22;31446;49.632;8.328;2023-05-07T12:10:25;24.50;99.90
45735;DHT22;31446;49.632;8.328;2023-05-07T12:25:37;25.10;99.90
45735;DHT22;31446;49.632;8.328;2023-05-07T12:40:47;24.90;99.90
45735;DHT22;31446;49.632;8.328;2023-05-07T12:55:55;24.80;99.90
45735;DHT22;31446;49.632;8.328;2023-05-07T13:11:03;24.80;99.90
45735;DHT22;31446;49.632;8.328;2023-05-07T13:26:10;24.50;99.90
45735;DHT22;31446;49.632;8.328;2023-05-07T13:41:16;24.20;99.90
45735;DHT22;31446;49.632;8.328;2023-05-07T13:56:23;24.10;99.90
45735;DHT22;31446;49.632;8.328;2023-05-07T14:11:35;23.80;99.90
45735;DHT22;31446;49.632;8.328;2023-05-07T14:26:44;23.30;99.90
45735;DHT22;31446;49.632;8.328;2023-05-07T14:41:51;23.20;99.90
45735;DHT22;31446;49.632;8.328;2023-05-07T14:56:59;22.40;99.90
45735;DHT22;31446;49.632;8.328;2023-05-07T15:12:05;22.20;99.90
45735;DHT22;31446;49.632;8.328;2023-05-07T15:27:12;20.90;99.90
45735;DHT22;31446;49.632;8.328;2023-05-07T15:42:19;19.60;99.90
45735;DHT22;31446;49.632;8.328;2023-05-07T15:57:26;18.50;99.90
45735;DHT22;31446;49.632;8.328;2023-05-07T16:12:32;17.80;99.90
45735;DHT22;31446;49.632;8.328;2023-05-07T16:27:38;17.40;99.90
45735;DHT22;31446;49.632;8.328;2023-05-07T16:42:45;17.10;99.90
45735;DHT22;31446;49.632;8.328;2023-05-07T16:57:51;16.80;99.90
45735;DHT22;31446;49.632;8.328;2023-05-07T17:12:57;16.70;99.90
45735;DHT22;31446;49.632;8.328;2023-05-07T17:28:04;16.50;99.90
45735;DHT22;31446;49.632;8.328;2023-05-07T17:43:10;16.70;99.90
45735;DHT22;31446;49.632;8.328;2023-05-07T17:58:16;16.90;99.90
45735;DHT22;31446;49.632;8.328;2023-05-07T18:13:23;16.80;99.90
45735;DHT22;31446;49.632;8.328;2023-05-07T18:28:29;16.60;99.90
45735;DHT22;31446;49.632;8.328;2023-05-07T18:43:35;16.30;99.90
45735;DHT22;31446;49.632;8.328;2023-05-07T18:58:42;16.30;99.90
45735;DHT22;31446;49.632;8.328;2023-05-07T19:13:48;16.10;99.90
45735;DHT22;31446;49.632;8.328;2023-05-07T19:28:54;16.10;99.90
45735;DHT22;31446;49.632;8.328;2023-05-07T19:44:00;15.80;99.90
45735;DHT22;31446;49.632;8.328;2023-05-07T19:59:07;15.80;99.90
45735;DHT22;31446;49.632;8.328;2023-05-07T20:14:13;15.80;99.90
45735;DHT22;31446;49.632;8.328;2023-05-07T20:29:20;15.70;99.90
45735;DHT22;31446;49.632;8.328;2023-05-07T20:44:27;15.70;99.90
45735;DHT22;31446;49.632;8.328;2023-05-07T20:59:33;15.60;99.90
45735;DHT22;31446;49.632;8.328;2023-05-07T21:14:58;15.70;99.90
45735;DHT22;31446;49.632;8.328;2023-05-07T21:30:06;15.60;99.90
45735;DHT22;31446;49.632;8.328;2023-05-07T21:45:12;15.50;99.90
45735;DHT22;31446;49.632;8.328;2023-05-07T22:00:20;15.50;99.90
45735;DHT22;31446;49.632;8.328;2023-05-07T22:15:27;15.50;99.90
45735;DHT22;31446;49.632;8.328;2023-05-07T22:30:33;15.40;99.90
45735;DHT22;31446;49.632;8.328;2023-05-07T22:45:40;15.10;99.90
45735;DHT22;31446;49.632;8.328;2023-05-07T23:00:46;15.20;99.90
45735;DHT22;31446;49.632;8.328;2023-05-07T23:15:52;15.30;99.90
45735;DHT22;31446;49.632;8.328;2023-05-07T23:30:58;15.50;99.90
45735;DHT22;31446;49.632;8.328;2023-05-07T23:46:04;15.50;99.90
